sensor_id;sensor_type;location;lat;lon;timestamp;pressure;altitude;pressure_sealevel;temperature;humidity
31183;BME280;17813;0.000;0.000;2022-10-16T00:01:38;99124.38;;;16.43;81.80
31183;BME280;17813;0.000;0.000;2022-10-16T00:04:05;99130.00;;;16.49;81.61
31183;BME280;17813;0.000;0.000;2022-10-16T00:06:35;99140.44;;;16.52;81.64
31183;BME280;17813;0.000;0.000;2022-10-16T00:09:02;99131.13;;;16.56;81.69
31183;BME280;17813;0.000;0.000;2022-10-16T00:11:33;99135.38;;;16.59;81.47
31183;BME280;17813;0.000;0.000;2022-10-16T00:14:02;99136.06;;;16.61;81.58
31183;BME280;17813;0.000;0.000;2022-10-16T00:16:30;99135.94;;;16.62;81.66
31183;BME280;17813;0.000;0.000;2022-10-16T00:18:57;99123.25;;;16.64;81.86
31183;BME280;17813;0.000;0.000;2022-10-16T00:21:28;99126.81;;;16.65;81.77
31183;BME280;17813;0.000;0.000;2022-10-16T00:24:04;99133.25;;;16.62;81.81
31183;BME280;17813;0.000;0.000;2022-10-16T00:26:34;99135.69;;;16.65;81.87
31183;BME280;17813;0.000;0.000;2022-10-16T00:29:05;99142.00;;;16.64;82.04
31183;BME280;17813;0.000;0.000;2022-10-16T00:31:33;99135.78;;;16.64;82.02
31183;BME280;17813;0.000;0.000;2022-10-16T00:34:00;99135.94;;;16.62;81.95
31183;BME280;17813;0.000;0.000;2022-10-16T00:36:28;99142.41;;;16.60;81.86
31183;BME280;17813;0.000;0.000;2022-10-16T00:38:57;99138.59;;;16.53;81.90
31183;BME280;17813;0.000;0.000;2022-10-16T00:41:30;99134.53;;;16.49;82.20
31183;BME280;17813;0.000;0.000;2022-10-16T00:44:00;99127.47;;;16.48;82.30
31183;BME280;17813;0.000;0.000;2022-10-16T00:49:15;99121.84;;;16.41;82.19
31183;BME280;17813;0.000;0.000;2022-10-16T00:51:59;99136.19;;;16.40;82.03
31183;BME280;17813;0.000;0.000;2022-10-16T00:54:32;99132.97;;;16.36;82.45
31183;BME280;17813;0.000;0.000;2022-10-16T00:57:03;99125.34;;;16.32;82.51
31183;BME280;17813;0.000;0.000;2022-10-16T00:59:36;99117.88;;;16.26;82.52
31183;BME280;17813;0.000;0.000;2022-10-16T01:02:05;99124.34;;;16.14;83.27
31183;BME280;17813;0.000;0.000;2022-10-16T01:04:45;99127.72;;;16.06;83.46
31183;BME280;17813;0.000;0.000;2022-10-16T01:10:08;99138.78;;;15.92;83.81
31183;BME280;17813;0.000;0.000;2022-10-16T01:12:56;99143.72;;;15.87;83.74
31183;BME280;17813;0.000;0.000;2022-10-16T01:18:33;99154.78;;;15.72;83.93
31183;BME280;17813;0.000;0.000;2022-10-16T01:21:09;99161.25;;;15.70;84.60
31183;BME280;17813;0.000;0.000;2022-10-16T01:29:39;99164.03;;;15.48;84.72
31183;BME280;17813;0.000;0.000;2022-10-16T01:35:25;99162.16;;;15.38;85.87
31183;BME280;17813;0.000;0.000;2022-10-16T01:40:42;99166.69;;;15.48;85.68
31183;BME280;17813;0.000;0.000;2022-10-16T01:43:19;99163.63;;;15.52;85.34
31183;BME280;17813;0.000;0.000;2022-10-16T01:45:48;99155.25;;;15.36;85.80
31183;BME280;17813;0.000;0.000;2022-10-16T01:48:18;99166.84;;;15.25;86.06
31183;BME280;17813;0.000;0.000;2022-10-16T01:53:56;99140.47;;;15.11;86.83
31183;BME280;17813;0.000;0.000;2022-10-16T01:56:25;99150.59;;;15.07;87.03
31183;BME280;17813;0.000;0.000;2022-10-16T01:59:05;99155.59;;;15.01;86.76
31183;BME280;17813;0.000;0.000;2022-10-16T02:01:34;99159.25;;;15.00;86.11
31183;BME280;17813;0.000;0.000;2022-10-16T02:04:11;99157.81;;;14.96;86.54
31183;BME280;17813;0.000;0.000;2022-10-16T02:06:39;99162.19;;;14.97;86.61
31183;BME280;17813;0.000;0.000;2022-10-16T02:09:08;99157.81;;;14.96;86.98
31183;BME280;17813;0.000;0.000;2022-10-16T02:11:35;99169.81;;;15.01;86.64
31183;BME280;17813;0.000;0.000;2022-10-16T02:14:05;99158.41;;;14.99;86.31
31183;BME280;17813;0.000;0.000;2022-10-16T02:16:34;99167.13;;;15.01;86.45
31183;BME280;17813;0.000;0.000;2022-10-16T02:19:02;99170.78;;;15.00;86.37
31183;BME280;17813;0.000;0.000;2022-10-16T02:21:58;99169.16;;;14.88;86.71
31183;BME280;17813;0.000;0.000;2022-10-16T02:29:48;99177.22;;;14.77;87.04
31183;BME280;17813;0.000;0.000;2022-10-16T02:32:21;99186.91;;;14.78;86.71
31183;BME280;17813;0.000;0.000;2022-10-16T02:34:50;99191.59;;;14.86;86.65
31183;BME280;17813;0.000;0.000;2022-10-16T02:37:18;99195.59;;;14.91;86.56
31183;BME280;17813;0.000;0.000;2022-10-16T02:39:46;99181.72;;;14.97;86.37
31183;BME280;17813;0.000;0.000;2022-10-16T02:42:13;99173.56;;;14.99;86.58
31183;BME280;17813;0.000;0.000;2022-10-16T02:44:40;99184.84;;;15.02;86.52
31183;BME280;17813;0.000;0.000;2022-10-16T02:47:07;99173.31;;;15.02;86.48
31183;BME280;17813;0.000;0.000;2022-10-16T02:49:34;99182.31;;;15.01;86.49
31183;BME280;17813;0.000;0.000;2022-10-16T02:52:02;99180.59;;;15.00;86.22
31183;BME280;17813;0.000;0.000;2022-10-16T02:54:29;99177.22;;;14.98;85.99
31183;BME280;17813;0.000;0.000;2022-10-16T02:56:56;99175.78;;;14.94;85.88
31183;BME280;17813;0.000;0.000;2022-10-16T02:59:24;99180.81;;;14.87;85.94
31183;BME280;17813;0.000;0.000;2022-10-16T03:01:51;99184.97;;;14.80;86.38
31183;BME280;17813;0.000;0.000;2022-10-16T03:04:17;99197.25;;;14.71;86.63
31183;BME280;17813;0.000;0.000;2022-10-16T03:06:44;99196.53;;;14.69;86.39
31183;BME280;17813;0.000;0.000;2022-10-16T03:09:12;99194.25;;;14.65;86.49
31183;BME280;17813;0.000;0.000;2022-10-16T03:11:39;99195.47;;;14.61;86.22
31183;BME280;17813;0.000;0.000;2022-10-16T03:14:06;99193.91;;;14.58;86.34
31183;BME280;17813;0.000;0.000;2022-10-16T03:16:33;99200.34;;;14.56;86.67
31183;BME280;17813;0.000;0.000;2022-10-16T03:19:00;99201.31;;;14.55;86.69
31183;BME280;17813;0.000;0.000;2022-10-16T03:21:27;99202.41;;;14.52;86.88
31183;BME280;17813;0.000;0.000;2022-10-16T03:23:54;99184.97;;;14.48;87.22
31183;BME280;17813;0.000;0.000;2022-10-16T03:26:21;99174.28;;;14.48;87.18
31183;BME280;17813;0.000;0.000;2022-10-16T03:28:47;99170.06;;;14.45;87.63
31183;BME280;17813;0.000;0.000;2022-10-16T03:31:14;99189.56;;;14.46;88.04
31183;BME280;17813;0.000;0.000;2022-10-16T03:33:41;99185.22;;;14.45;87.76
31183;BME280;17813;0.000;0.000;2022-10-16T03:36:08;99189.69;;;14.44;87.23
31183;BME280;17813;0.000;0.000;2022-10-16T03:38:35;99199.75;;;14.41;87.06
31183;BME280;17813;0.000;0.000;2022-10-16T03:41:03;99197.72;;;14.33;87.17
31183;BME280;17813;0.000;0.000;2022-10-16T03:43:30;99204.97;;;14.31;87.14
31183;BME280;17813;0.000;0.000;2022-10-16T03:45:57;99202.69;;;14.27;87.69
31183;BME280;17813;0.000;0.000;2022-10-16T03:48:24;99206.81;;;14.20;88.01
31183;BME280;17813;0.000;0.000;2022-10-16T03:50:50;99192.78;;;14.18;87.56
31183;BME280;17813;0.000;0.000;2022-10-16T03:53:18;99185.63;;;14.07;88.04
31183;BME280;17813;0.000;0.000;2022-10-16T03:55:45;99189.78;;;14.00;88.95
31183;BME280;17813;0.000;0.000;2022-10-16T03:58:12;99191.59;;;13.88;90.12
31183;BME280;17813;0.000;0.000;2022-10-16T04:00:43;99191.59;;;13.77;91.06
31183;BME280;17813;0.000;0.000;2022-10-16T04:03:11;99197.91;;;13.87;90.84
31183;BME280;17813;0.000;0.000;2022-10-16T04:05:37;99191.97;;;13.95;89.94
31183;BME280;17813;0.000;0.000;2022-10-16T04:08:05;99189.78;;;14.00;89.09
31183;BME280;17813;0.000;0.000;2022-10-16T04:10:32;99193.41;;;13.99;89.24
31183;BME280;17813;0.000;0.000;2022-10-16T04:12:59;99193.53;;;13.97;89.81
31183;BME280;17813;0.000;0.000;2022-10-16T04:15:26;99203.94;;;14.00;89.63
31183;BME280;17813;0.000;0.000;2022-10-16T04:17:53;99207.47;;;14.01;89.27
31183;BME280;17813;0.000;0.000;2022-10-16T04:20:21;99203.94;;;14.00;89.55
31183;BME280;17813;0.000;0.000;2022-10-16T04:22:49;99209.28;;;14.00;89.23
31183;BME280;17813;0.000;0.000;2022-10-16T04:25:16;99224.56;;;13.98;89.27
31183;BME280;17813;0.000;0.000;2022-10-16T04:27:43;99221.88;;;13.87;89.35
31183;BME280;17813;0.000;0.000;2022-10-16T04:30:10;99221.16;;;13.74;89.77
31183;BME280;17813;0.000;0.000;2022-10-16T04:32:37;99221.75;;;13.66;89.65
31183;BME280;17813;0.000;0.000;2022-10-16T04:35:04;99210.00;;;13.58;89.24
31183;BME280;17813;0.000;0.000;2022-10-16T04:37:31;99218.97;;;13.57;89.24
31183;BME280;17813;0.000;0.000;2022-10-16T04:39:58;99214.38;;;13.59;89.48
31183;BME280;17813;0.000;0.000;2022-10-16T04:42:25;99218.84;;;13.58;89.47
31183;BME280;17813;0.000;0.000;2022-10-16T04:44:53;99240.06;;;13.60;89.45
31183;BME280;17813;0.000;0.000;2022-10-16T04:47:19;99242.22;;;13.66;89.06
31183;BME280;17813;0.000;0.000;2022-10-16T04:49:46;99234.25;;;13.66;88.86
31183;BME280;17813;0.000;0.000;2022-10-16T04:52:13;99240.06;;;13.60;89.49
31183;BME280;17813;0.000;0.000;2022-10-16T04:54:40;99247.78;;;13.51;90.27
31183;BME280;17813;0.000;0.000;2022-10-16T04:57:07;99251.53;;;13.49;89.83
31183;BME280;17813;0.000;0.000;2022-10-16T04:59:33;99261.09;;;13.51;89.36
31183;BME280;17813;0.000;0.000;2022-10-16T05:02:01;99283.28;;;13.52;89.45
31183;BME280;17813;0.000;0.000;2022-10-16T05:04:28;99281.94;;;13.58;89.38
31183;BME280;17813;0.000;0.000;2022-10-16T05:06:55;99274.44;;;13.63;89.27
31183;BME280;17813;0.000;0.000;2022-10-16T05:09:22;99274.81;;;13.69;89.36
31183;BME280;17813;0.000;0.000;2022-10-16T05:11:49;99272.53;;;13.76;89.51
31183;BME280;17813;0.000;0.000;2022-10-16T05:14:16;99276.53;;;13.81;89.38
31183;BME280;17813;0.000;0.000;2022-10-16T05:16:42;99265.88;;;13.81;89.00
31183;BME280;17813;0.000;0.000;2022-10-16T05:19:09;99268.16;;;13.86;88.91
31183;BME280;17813;0.000;0.000;2022-10-16T05:21:37;99276.66;;;13.91;88.62
31183;BME280;17813;0.000;0.000;2022-10-16T05:24:04;99276.06;;;13.88;89.04
31183;BME280;17813;0.000;0.000;2022-10-16T05:26:31;99274.94;;;13.79;89.87
31183;BME280;17813;0.000;0.000;2022-10-16T05:28:58;99271.56;;;13.77;90.29
31183;BME280;17813;0.000;0.000;2022-10-16T05:31:25;99272.16;;;13.69;90.19
31183;BME280;17813;0.000;0.000;2022-10-16T05:33:52;99277.13;;;13.74;90.56
31183;BME280;17813;0.000;0.000;2022-10-16T05:36:19;99279.94;;;13.83;89.78
31183;BME280;17813;0.000;0.000;2022-10-16T05:38:51;99276.78;;;13.90;89.94
31183;BME280;17813;0.000;0.000;2022-10-16T05:41:19;99287.44;;;14.01;89.63
31183;BME280;17813;0.000;0.000;2022-10-16T05:43:52;99294.59;;;14.11;89.37
31183;BME280;17813;0.000;0.000;2022-10-16T05:46:19;99283.19;;;14.21;89.56
31183;BME280;17813;0.000;0.000;2022-10-16T05:48:47;99283.19;;;14.32;89.42
31183;BME280;17813;0.000;0.000;2022-10-16T05:51:15;99288.41;;;14.44;89.42
31183;BME280;17813;0.000;0.000;2022-10-16T05:53:42;99293.75;;;14.56;89.05
31183;BME280;17813;0.000;0.000;2022-10-16T05:56:11;99310.09;;;14.62;88.82
31183;BME280;17813;0.000;0.000;2022-10-16T05:58:40;99302.56;;;14.67;88.61
31183;BME280;17813;0.000;0.000;2022-10-16T06:01:18;99299.53;;;14.72;88.79
31183;BME280;17813;0.000;0.000;2022-10-16T06:03:45;99300.13;;;14.75;88.80
31183;BME280;17813;0.000;0.000;2022-10-16T06:06:14;99298.94;;;14.68;89.79
31183;BME280;17813;0.000;0.000;2022-10-16T06:08:43;99300.13;;;14.75;89.02
31183;BME280;17813;0.000;0.000;2022-10-16T06:11:13;99308.72;;;14.79;89.36
31183;BME280;17813;0.000;0.000;2022-10-16T06:13:41;99315.00;;;14.89;88.95
31183;BME280;17813;0.000;0.000;2022-10-16T06:16:11;99330.66;;;14.94;88.70
31183;BME280;17813;0.000;0.000;2022-10-16T06:18:39;99324.81;;;15.00;88.73
31183;BME280;17813;0.000;0.000;2022-10-16T06:21:11;99331.94;;;15.10;88.64
31183;BME280;17813;0.000;0.000;2022-10-16T06:23:40;99329.34;;;15.20;88.32
31183;BME280;17813;0.000;0.000;2022-10-16T06:26:16;99326.16;;;15.26;88.11
31183;BME280;17813;0.000;0.000;2022-10-16T06:28:44;99337.06;;;15.34;88.35
31183;BME280;17813;0.000;0.000;2022-10-16T06:31:13;99344.31;;;15.43;88.15
31183;BME280;17813;0.000;0.000;2022-10-16T06:33:40;99353.38;;;15.52;87.89
31183;BME280;17813;0.000;0.000;2022-10-16T06:36:10;99356.31;;;15.60;87.87
31183;BME280;17813;0.000;0.000;2022-10-16T06:38:38;99355.53;;;15.69;87.47
31183;BME280;17813;0.000;0.000;2022-10-16T06:41:06;99355.63;;;15.79;87.57
31183;BME280;17813;0.000;0.000;2022-10-16T06:43:34;99362.13;;;15.86;87.46
31183;BME280;17813;0.000;0.000;2022-10-16T06:46:13;99355.72;;;15.98;87.23
31183;BME280;17813;0.000;0.000;2022-10-16T06:48:40;99356.38;;;16.12;87.29
31183;BME280;17813;0.000;0.000;2022-10-16T06:51:16;99366.28;;;16.21;86.95
31183;BME280;17813;0.000;0.000;2022-10-16T06:53:48;99385.13;;;16.19;87.26
31183;BME280;17813;0.000;0.000;2022-10-16T06:56:21;99384.34;;;16.28;87.51
31183;BME280;17813;0.000;0.000;2022-10-16T06:58:49;99369.44;;;16.35;87.37
31183;BME280;17813;0.000;0.000;2022-10-16T07:01:19;99364.28;;;16.44;87.11
31183;BME280;17813;0.000;0.000;2022-10-16T07:03:48;99375.28;;;16.50;87.17
31183;BME280;17813;0.000;0.000;2022-10-16T07:06:19;99371.81;;;16.59;87.06
31183;BME280;17813;0.000;0.000;2022-10-16T07:08:48;99370.47;;;16.75;86.98
31183;BME280;17813;0.000;0.000;2022-10-16T07:11:18;99371.66;;;16.91;86.41
31183;BME280;17813;0.000;0.000;2022-10-16T07:13:47;99360.13;;;17.10;86.24
31183;BME280;17813;0.000;0.000;2022-10-16T07:16:18;99366.91;;;17.24;85.46
31183;BME280;17813;0.000;0.000;2022-10-16T07:18:47;99366.34;;;17.40;85.12
31183;BME280;17813;0.000;0.000;2022-10-16T07:21:20;99377.66;;;17.53;84.57
31183;BME280;17813;0.000;0.000;2022-10-16T07:23:59;99372.88;;;17.66;84.27
31183;BME280;17813;0.000;0.000;2022-10-16T07:26:26;99353.94;;;17.77;83.86
31183;BME280;17813;0.000;0.000;2022-10-16T07:28:53;99359.28;;;17.87;83.41
31183;BME280;17813;0.000;0.000;2022-10-16T07:31:20;99373.13;;;17.92;83.14
31183;BME280;17813;0.000;0.000;2022-10-16T07:33:53;99376.81;;;17.91;82.60
31183;BME280;17813;0.000;0.000;2022-10-16T07:36:21;99379.19;;;17.94;82.18
31183;BME280;17813;0.000;0.000;2022-10-16T07:38:48;99385.13;;;17.97;82.33
31183;BME280;17813;0.000;0.000;2022-10-16T07:41:18;99385.41;;;18.04;82.22
31183;BME280;17813;0.000;0.000;2022-10-16T07:43:48;99391.59;;;18.14;82.12
31183;BME280;17813;0.000;0.000;2022-10-16T07:46:18;99392.69;;;18.31;81.80
31183;BME280;17813;0.000;0.000;2022-10-16T07:48:46;99396.63;;;18.46;80.75
31183;BME280;17813;0.000;0.000;2022-10-16T07:51:20;99390.41;;;18.46;80.09
31183;BME280;17813;0.000;0.000;2022-10-16T07:53:48;99391.19;;;18.56;80.07
31183;BME280;17813;0.000;0.000;2022-10-16T07:56:16;99396.88;;;18.62;79.93
31183;BME280;17813;0.000;0.000;2022-10-16T07:58:44;99387.38;;;18.68;79.77
31183;BME280;17813;0.000;0.000;2022-10-16T08:01:13;99389.59;;;18.73;79.59
31183;BME280;17813;0.000;0.000;2022-10-16T08:03:45;99396.28;;;18.69;78.86
31183;BME280;17813;0.000;0.000;2022-10-16T08:06:12;99398.97;;;18.69;78.83
31183;BME280;17813;0.000;0.000;2022-10-16T08:08:41;99402.50;;;18.69;79.04
31183;BME280;17813;0.000;0.000;2022-10-16T08:11:08;99392.75;;;18.68;79.17
31183;BME280;17813;0.000;0.000;2022-10-16T08:13:36;99389.91;;;18.70;79.04
31183;BME280;17813;0.000;0.000;2022-10-16T08:16:04;99391.59;;;18.71;79.02
31183;BME280;17813;0.000;0.000;2022-10-16T08:18:36;99387.47;;;18.76;79.16
31183;BME280;17813;0.000;0.000;2022-10-16T08:21:04;99407.06;;;18.86;78.98
31183;BME280;17813;0.000;0.000;2022-10-16T08:23:33;99404.78;;;18.91;78.77
31183;BME280;17813;0.000;0.000;2022-10-16T08:26:06;99395.63;;;18.84;78.59
31183;BME280;17813;0.000;0.000;2022-10-16T08:28:34;99407.38;;;18.83;78.95
31183;BME280;17813;0.000;0.000;2022-10-16T08:31:15;99404.28;;;18.78;79.15
31183;BME280;17813;0.000;0.000;2022-10-16T08:33:43;99410.06;;;18.83;79.31
31183;BME280;17813;0.000;0.000;2022-10-16T08:36:13;99411.00;;;18.92;78.78
31183;BME280;17813;0.000;0.000;2022-10-16T08:38:41;99413.88;;;19.08;78.78
31183;BME280;17813;0.000;0.000;2022-10-16T08:49:15;99422.28;;;19.68;77.62
31183;BME280;17813;0.000;0.000;2022-10-16T08:51:43;99422.75;;;19.81;75.92
31183;BME280;17813;0.000;0.000;2022-10-16T08:57:16;99440.50;;;19.74;73.52
31183;BME280;17813;0.000;0.000;2022-10-16T08:59:47;99426.03;;;19.93;74.46
31183;BME280;17813;0.000;0.000;2022-10-16T09:11:11;99454.63;;;20.12;72.73
31183;BME280;17813;0.000;0.000;2022-10-16T09:16:44;99470.69;;;20.21;71.97
31183;BME280;17813;0.000;0.000;2022-10-16T09:19:31;99472.28;;;20.32;71.87
31183;BME280;17813;0.000;0.000;2022-10-16T09:22:10;99477.81;;;20.31;70.83
31183;BME280;17813;0.000;0.000;2022-10-16T09:24:39;99477.19;;;20.37;70.54
31183;BME280;17813;0.000;0.000;2022-10-16T09:27:10;99476.66;;;20.33;70.83
31183;BME280;17813;0.000;0.000;2022-10-16T09:29:38;99478.03;;;20.37;70.78
31183;BME280;17813;0.000;0.000;2022-10-16T09:32:16;99481.22;;;20.33;70.62
31183;BME280;17813;0.000;0.000;2022-10-16T09:34:52;99478.19;;;20.36;70.62
31183;BME280;17813;0.000;0.000;2022-10-16T09:37:21;99482.00;;;20.43;70.37
31183;BME280;17813;0.000;0.000;2022-10-16T09:39:53;99481.72;;;20.54;69.51
31183;BME280;17813;0.000;0.000;2022-10-16T09:42:27;99479.34;;;20.77;69.54
31183;BME280;17813;0.000;0.000;2022-10-16T09:44:58;99487.72;;;20.92;68.95
31183;BME280;17813;0.000;0.000;2022-10-16T09:47:26;99494.63;;;20.94;68.85
31183;BME280;17813;0.000;0.000;2022-10-16T09:49:57;99487.97;;;21.06;68.46
31183;BME280;17813;0.000;0.000;2022-10-16T09:52:26;99491.53;;;21.15;68.14
31183;BME280;17813;0.000;0.000;2022-10-16T09:55:13;99496.56;;;21.10;67.25
31183;BME280;17813;0.000;0.000;2022-10-16T09:57:59;99499.84;;;21.22;67.09
31183;BME280;17813;0.000;0.000;2022-10-16T10:00:25;99492.19;;;21.43;67.20
31183;BME280;17813;0.000;0.000;2022-10-16T10:02:59;99506.53;;;21.43;65.74
31183;BME280;17813;0.000;0.000;2022-10-16T10:05:28;99503.84;;;21.52;64.99
31183;BME280;17813;0.000;0.000;2022-10-16T10:07:58;99504.38;;;21.63;63.98
31183;BME280;17813;0.000;0.000;2022-10-16T10:10:29;99510.13;;;21.68;64.50
31183;BME280;17813;0.000;0.000;2022-10-16T10:12:57;99509.63;;;21.65;63.66
31183;BME280;17813;0.000;0.000;2022-10-16T10:15:25;99505.09;;;21.73;64.50
31183;BME280;17813;0.000;0.000;2022-10-16T10:17:56;99509.16;;;21.77;64.05
31183;BME280;17813;0.000;0.000;2022-10-16T10:20:27;99517.56;;;21.66;63.77
31183;BME280;17813;0.000;0.000;2022-10-16T10:22:55;99510.28;;;21.59;63.93
31183;BME280;17813;0.000;0.000;2022-10-16T10:33:43;99518.91;;;21.62;64.14
31183;BME280;17813;0.000;0.000;2022-10-16T10:36:32;99507.44;;;21.68;63.31
31183;BME280;17813;0.000;0.000;2022-10-16T10:39:07;99504.56;;;21.70;63.29
31183;BME280;17813;0.000;0.000;2022-10-16T10:50:31;99509.22;;;22.83;59.86
31183;BME280;17813;0.000;0.000;2022-10-16T11:07:33;99500.50;;;23.12;59.60
31183;BME280;17813;0.000;0.000;2022-10-16T11:10:12;99507.72;;;23.28;59.10
31183;BME280;17813;0.000;0.000;2022-10-16T11:12:44;99506.00;;;23.43;59.62
31183;BME280;17813;0.000;0.000;2022-10-16T11:15:27;99510.22;;;23.37;58.10
31183;BME280;17813;0.000;0.000;2022-10-16T11:18:08;99514.78;;;23.45;58.78
31183;BME280;17813;0.000;0.000;2022-10-16T11:20:45;99513.03;;;23.05;58.39
31183;BME280;17813;0.000;0.000;2022-10-16T11:23:23;99506.78;;;23.04;58.39
31183;BME280;17813;0.000;0.000;2022-10-16T11:25:52;99512.19;;;23.04;58.97
31183;BME280;17813;0.000;0.000;2022-10-16T11:28:27;99514.25;;;23.02;58.84
31183;BME280;17813;0.000;0.000;2022-10-16T11:37:02;99523.38;;;23.01;58.87
31183;BME280;17813;0.000;0.000;2022-10-16T11:39:36;99532.72;;;22.83;59.30
31183;BME280;17813;0.000;0.000;2022-10-16T11:42:11;99539.94;;;22.74;60.09
31183;BME280;17813;0.000;0.000;2022-10-16T11:44:51;99540.81;;;22.66;60.13
31183;BME280;17813;0.000;0.000;2022-10-16T11:47:45;99550.28;;;22.46;60.82
31183;BME280;17813;0.000;0.000;2022-10-16T11:50:25;99548.25;;;22.32;61.54
31183;BME280;17813;0.000;0.000;2022-10-16T11:55:56;99559.56;;;22.27;61.52
31183;BME280;17813;0.000;0.000;2022-10-16T11:58:34;99553.47;;;22.33;61.78
31183;BME280;17813;0.000;0.000;2022-10-16T12:01:18;99548.91;;;22.34;61.99
31183;BME280;17813;0.000;0.000;2022-10-16T12:09:02;99550.09;;;22.48;61.52
31183;BME280;17813;0.000;0.000;2022-10-16T12:16:39;99559.41;;;22.53;61.26
31183;BME280;17813;0.000;0.000;2022-10-16T12:19:18;99554.31;;;22.58;61.44
31183;BME280;17813;0.000;0.000;2022-10-16T12:21:46;99550.25;;;22.78;61.03
31183;BME280;17813;0.000;0.000;2022-10-16T12:24:35;99560.25;;;22.86;60.18
31183;BME280;17813;0.000;0.000;2022-10-16T12:27:04;99558.03;;;22.90;59.76
31183;BME280;17813;0.000;0.000;2022-10-16T12:32:05;99563.63;;;22.80;59.66
31183;BME280;17813;0.000;0.000;2022-10-16T12:34:48;99568.53;;;22.52;60.28
31183;BME280;17813;0.000;0.000;2022-10-16T12:37:28;99580.16;;;22.53;60.21
31183;BME280;17813;0.000;0.000;2022-10-16T12:39:58;99570.03;;;22.38;60.21
31183;BME280;17813;0.000;0.000;2022-10-16T12:44:56;99562.78;;;22.39;59.94
31183;BME280;17813;0.000;0.000;2022-10-16T12:47:48;99556.84;;;22.27;60.24
31183;BME280;17813;0.000;0.000;2022-10-16T12:50:34;99557.19;;;22.40;59.56
31183;BME280;17813;0.000;0.000;2022-10-16T12:53:03;99563.28;;;22.59;59.60
31183;BME280;17813;0.000;0.000;2022-10-16T12:56:09;99556.19;;;22.74;58.90
31183;BME280;17813;0.000;0.000;2022-10-16T13:04:19;99566.97;;;23.06;58.42
31183;BME280;17813;0.000;0.000;2022-10-16T13:09:47;99570.16;;;23.18;57.90
31183;BME280;17813;0.000;0.000;2022-10-16T13:18:11;99561.00;;;23.27;57.32
31183;BME280;17813;0.000;0.000;2022-10-16T13:23:15;99575.44;;;23.03;56.81
31183;BME280;17813;0.000;0.000;2022-10-16T13:28:39;99573.59;;;22.88;56.86
31183;BME280;17813;0.000;0.000;2022-10-16T13:31:14;99564.94;;;23.00;56.69
31183;BME280;17813;0.000;0.000;2022-10-16T13:33:45;99569.47;;;23.16;57.16
31183;BME280;17813;0.000;0.000;2022-10-16T13:36:27;99558.00;;;23.06;56.91
31183;BME280;17813;0.000;0.000;2022-10-16T13:39:15;99568.88;;;22.82;56.98
31183;BME280;17813;0.000;0.000;2022-10-16T13:42:05;99570.03;;;22.55;57.57
31183;BME280;17813;0.000;0.000;2022-10-16T13:44:40;99579.16;;;22.45;58.09
31183;BME280;17813;0.000;0.000;2022-10-16T13:47:24;99578.31;;;22.45;58.16
31183;BME280;17813;0.000;0.000;2022-10-16T13:50:26;99582.03;;;22.44;57.86
31183;BME280;17813;0.000;0.000;2022-10-16T13:53:02;99583.53;;;22.38;57.50
31183;BME280;17813;0.000;0.000;2022-10-16T13:55:29;99592.31;;;22.40;58.23
31183;BME280;17813;0.000;0.000;2022-10-16T13:58:13;99591.47;;;22.40;58.09
31183;BME280;17813;0.000;0.000;2022-10-16T14:01:04;99592.13;;;22.26;58.33
31183;BME280;17813;0.000;0.000;2022-10-16T14:03:30;99602.59;;;22.21;58.94
31183;BME280;17813;0.000;0.000;2022-10-16T14:06:02;99598.03;;;22.21;58.59
31183;BME280;17813;0.000;0.000;2022-10-16T14:08:31;99597.72;;;22.24;58.41
31183;BME280;17813;0.000;0.000;2022-10-16T14:11:00;99600.56;;;22.14;58.44
31183;BME280;17813;0.000;0.000;2022-10-16T14:13:47;99605.44;;;22.11;57.66
31183;BME280;17813;0.000;0.000;2022-10-16T14:16:25;99613.56;;;22.11;58.03
31183;BME280;17813;0.000;0.000;2022-10-16T14:18:57;99610.34;;;22.16;58.28
31183;BME280;17813;0.000;0.000;2022-10-16T14:21:25;99610.19;;;22.17;57.79
31183;BME280;17813;0.000;0.000;2022-10-16T14:23:54;99604.13;;;22.23;57.67
31183;BME280;17813;0.000;0.000;2022-10-16T14:26:27;99610.69;;;22.12;57.73
31183;BME280;17813;0.000;0.000;2022-10-16T14:29:15;99605.94;;;22.06;57.71
31183;BME280;17813;0.000;0.000;2022-10-16T14:34:33;99617.19;;;21.94;58.15
31183;BME280;17813;0.000;0.000;2022-10-16T14:39:51;99611.06;;;21.83;58.37
31183;BME280;17813;0.000;0.000;2022-10-16T14:42:20;99613.44;;;21.87;58.22
31183;BME280;17813;0.000;0.000;2022-10-16T14:44:54;99612.59;;;21.86;58.36
31183;BME280;17813;0.000;0.000;2022-10-16T14:47:25;99619.00;;;21.85;58.41
31183;BME280;17813;0.000;0.000;2022-10-16T14:49:53;99619.69;;;21.87;58.22
31183;BME280;17813;0.000;0.000;2022-10-16T14:52:22;99612.94;;;21.83;58.59
31183;BME280;17813;0.000;0.000;2022-10-16T14:54:50;99613.06;;;21.73;58.82
31183;BME280;17813;0.000;0.000;2022-10-16T14:57:22;99612.69;;;21.68;58.86
31183;BME280;17813;0.000;0.000;2022-10-16T14:59:51;99616.41;;;21.67;58.84
31183;BME280;17813;0.000;0.000;2022-10-16T15:02:31;99611.50;;;21.63;59.30
31183;BME280;17813;0.000;0.000;2022-10-16T15:05:17;99625.47;;;21.58;59.33
31183;BME280;17813;0.000;0.000;2022-10-16T15:07:47;99625.63;;;21.57;59.60
31183;BME280;17813;0.000;0.000;2022-10-16T15:10:20;99631.53;;;21.52;60.08
31183;BME280;17813;0.000;0.000;2022-10-16T15:12:48;99634.38;;;21.50;60.06
31183;BME280;17813;0.000;0.000;2022-10-16T15:15:26;99647.34;;;21.47;59.96
31183;BME280;17813;0.000;0.000;2022-10-16T15:17:57;99649.34;;;21.45;60.61
31183;BME280;17813;0.000;0.000;2022-10-16T15:20:32;99656.56;;;21.36;60.80
31183;BME280;17813;0.000;0.000;2022-10-16T15:23:02;99652.63;;;21.31;60.76
31183;BME280;17813;0.000;0.000;2022-10-16T15:28:11;99662.91;;;21.09;62.05
31183;BME280;17813;0.000;0.000;2022-10-16T15:30:39;99660.31;;;21.00;62.10
31183;BME280;17813;0.000;0.000;2022-10-16T15:33:13;99655.16;;;20.89;62.77
31183;BME280;17813;0.000;0.000;2022-10-16T15:35:45;99655.22;;;20.79;62.56
31183;BME280;17813;0.000;0.000;2022-10-16T15:38:18;99663.69;;;20.66;63.03
31183;BME280;17813;0.000;0.000;2022-10-16T15:40:49;99660.78;;;20.60;63.11
31183;BME280;17813;0.000;0.000;2022-10-16T15:43:16;99663.25;;;20.53;63.08
31183;BME280;17813;0.000;0.000;2022-10-16T15:45:46;99672.94;;;20.46;63.19
31183;BME280;17813;0.000;0.000;2022-10-16T15:48:24;99674.97;;;20.34;63.41